sensor_id;sensor_type;location;lat;lon;timestamp;P1;durP1;ratioP1;P2;durP2;ratioP2
7324;SDS011;3703;48.016;7.802;2022-07-22T00:00:11;6.40;;;5.80;;
7324;SDS011;3703;48.016;7.802;2022-07-22T00:03:00;7.43;;;5.33;;
7324;SDS011;3703;48.016;7.802;2022-07-22T00:05:48;6.33;;;5.27;;
7324;SDS011;3703;48.016;7.802;2022-07-22T00:08:36;5.67;;;4.87;;
7324;SDS011;3703;48.016;7.802;2022-07-22T00:11:25;6.67;;;5.90;;
7324;SDS011;3703;48.016;7.802;2022-07-22T00:14:12;8.43;;;5.43;;
7324;SDS011;3703;48.016;7.802;2022-07-22T00:17:01;6.60;;;5.43;;
7324;SDS011;3703;48.016;7.802;2022-07-22T00:19:48;5.87;;;5.17;;
7324;SDS011;3703;48.016;7.802;2022-07-22T00:22:36;5.87;;;5.30;;
7324;SDS011;3703;48.016;7.802;2022-07-22T00:25:24;7.10;;;5.03;;
7324;SDS011;3703;48.016;7.802;2022-07-22T00:28:15;5.77;;;5.10;;
7324;SDS011;3703;48.016;7.802;2022-07-22T00:31:02;5.80;;;5.20;;
7324;SDS011;3703;48.016;7.802;2022-07-22T00:33:50;6.83;;;6.13;;
7324;SDS011;3703;48.016;7.802;2022-07-22T00:36:38;5.73;;;5.13;;
7324;SDS011;3703;48.016;7.802;2022-07-22T00:39:26;6.77;;;5.67;;
7324;SDS011;3703;48.016;7.802;2022-07-22T00:42:13;6.30;;;5.60;;
7324;SDS011;3703;48.016;7.802;2022-07-22T00:45:03;8.30;;;5.83;;
7324;SDS011;3703;48.016;7.802;2022-07-22T00:47:52;6.67;;;5.83;;
7324;SDS011;3703;48.016;7.802;2022-07-22T00:50:40;6.83;;;5.80;;
7324;SDS011;3703;48.016;7.802;2022-07-22T00:53:27;6.43;;;5.47;;
7324;SDS011;3703;48.016;7.802;2022-07-22T00:56:15;6.27;;;5.47;;
7324;SDS011;3703;48.016;7.802;2022-07-22T00:59:06;6.70;;;5.90;;
7324;SDS011;3703;48.016;7.802;2022-07-22T01:01:58;6.37;;;5.47;;
7324;SDS011;3703;48.016;7.802;2022-07-22T01:04:45;6.73;;;5.30;;
7324;SDS011;3703;48.016;7.802;2022-07-22T01:07:33;6.83;;;5.80;;
7324;SDS011;3703;48.016;7.802;2022-07-22T01:10:21;6.93;;;5.57;;
7324;SDS011;3703;48.016;7.802;2022-07-22T01:13:09;6.03;;;5.43;;
7324;SDS011;3703;48.016;7.802;2022-07-22T01:15:56;7.20;;;5.50;;
7324;SDS011;3703;48.016;7.802;2022-07-22T01:18:45;7.37;;;5.27;;
7324;SDS011;3703;48.016;7.802;2022-07-22T01:21:34;5.90;;;5.40;;
7324;SDS011;3703;48.016;7.802;2022-07-22T01:24:22;7.13;;;5.67;;
7324;SDS011;3703;48.016;7.802;2022-07-22T01:27:10;5.93;;;5.33;;
7324;SDS011;3703;48.016;7.802;2022-07-22T01:29:58;6.53;;;5.40;;
7324;SDS011;3703;48.016;7.802;2022-07-22T01:32:45;7.57;;;5.33;;
7324;SDS011;3703;48.016;7.802;2022-07-22T01:35:33;8.37;;;5.57;;
7324;SDS011;3703;48.016;7.802;2022-07-22T01:38:22;6.77;;;5.47;;
7324;SDS011;3703;48.016;7.802;2022-07-22T01:41:10;6.97;;;5.83;;
7324;SDS011;3703;48.016;7.802;2022-07-22T01:43:58;6.60;;;5.20;;
7324;SDS011;3703;48.016;7.802;2022-07-22T01:46:46;8.37;;;5.80;;
7324;SDS011;3703;48.016;7.802;2022-07-22T01:49:35;7.70;;;5.97;;
7324;SDS011;3703;48.016;7.802;2022-07-22T01:52:23;6.70;;;5.77;;
7324;SDS011;3703;48.016;7.802;2022-07-22T01:55:12;6.77;;;5.77;;
7324;SDS011;3703;48.016;7.802;2022-07-22T01:57:59;6.73;;;5.90;;
7324;SDS011;3703;48.016;7.802;2022-07-22T02:00:48;7.20;;;5.87;;
7324;SDS011;3703;48.016;7.802;2022-07-22T02:03:36;7.83;;;6.33;;
7324;SDS011;3703;48.016;7.802;2022-07-22T02:06:24;7.20;;;6.33;;
7324;SDS011;3703;48.016;7.802;2022-07-22T02:09:11;6.90;;;6.17;;
7324;SDS011;3703;48.016;7.802;2022-07-22T02:12:01;7.60;;;5.70;;
7324;SDS011;3703;48.016;7.802;2022-07-22T02:14:49;7.37;;;5.90;;
7324;SDS011;3703;48.016;7.802;2022-07-22T02:17:36;7.03;;;6.33;;
7324;SDS011;3703;48.016;7.802;2022-07-22T02:20:24;6.90;;;6.10;;
7324;SDS011;3703;48.016;7.802;2022-07-22T02:23:12;6.43;;;5.73;;
7324;SDS011;3703;48.016;7.802;2022-07-22T02:26:00;6.63;;;5.63;;
7324;SDS011;3703;48.016;7.802;2022-07-22T02:28:49;6.17;;;5.57;;
7324;SDS011;3703;48.016;7.802;2022-07-22T02:31:37;8.67;;;6.77;;
7324;SDS011;3703;48.016;7.802;2022-07-22T02:34:25;7.53;;;5.63;;
7324;SDS011;3703;48.016;7.802;2022-07-22T02:37:13;7.13;;;6.10;;
7324;SDS011;3703;48.016;7.802;2022-07-22T02:40:00;7.50;;;6.70;;
7324;SDS011;3703;48.016;7.802;2022-07-22T02:42:49;6.40;;;5.57;;
7324;SDS011;3703;48.016;7.802;2022-07-22T02:45:38;6.87;;;5.90;;
7324;SDS011;3703;48.016;7.802;2022-07-22T02:48:25;6.80;;;6.10;;
7324;SDS011;3703;48.016;7.802;2022-07-22T02:51:13;6.73;;;5.90;;
7324;SDS011;3703;48.016;7.802;2022-07-22T02:54:01;7.50;;;6.70;;
7324;SDS011;3703;48.016;7.802;2022-07-22T02:56:48;6.60;;;5.90;;
7324;SDS011;3703;48.016;7.802;2022-07-22T02:59:36;7.17;;;6.07;;
7324;SDS011;3703;48.016;7.802;2022-07-22T03:02:25;6.90;;;6.20;;
7324;SDS011;3703;48.016;7.802;2022-07-22T03:05:13;7.93;;;6.30;;
7324;SDS011;3703;48.016;7.802;2022-07-22T03:08:01;7.47;;;6.30;;
7324;SDS011;3703;48.016;7.802;2022-07-22T03:10:48;7.33;;;6.30;;
7324;SDS011;3703;48.016;7.802;2022-07-22T03:13:36;9.03;;;6.70;;
7324;SDS011;3703;48.016;7.802;2022-07-22T03:16:24;7.23;;;6.30;;
7324;SDS011;3703;48.016;7.802;2022-07-22T03:19:13;7.33;;;5.93;;
7324;SDS011;3703;48.016;7.802;2022-07-22T03:22:01;6.60;;;5.83;;
7324;SDS011;3703;48.016;7.802;2022-07-22T03:24:48;10.03;;;6.27;;
7324;SDS011;3703;48.016;7.802;2022-07-22T03:27:36;8.30;;;7.00;;
7324;SDS011;3703;48.016;7.802;2022-07-22T03:30:24;7.67;;;6.07;;
7324;SDS011;3703;48.016;7.802;2022-07-22T03:33:12;6.73;;;6.03;;
7324;SDS011;3703;48.016;7.802;2022-07-22T03:36:02;8.90;;;6.23;;
7324;SDS011;3703;48.016;7.802;2022-07-22T03:38:52;8.63;;;6.70;;
7324;SDS011;3703;48.016;7.802;2022-07-22T03:41:39;7.57;;;6.10;;
7324;SDS011;3703;48.016;7.802;2022-07-22T03:44:27;6.63;;;5.93;;
7324;SDS011;3703;48.016;7.802;2022-07-22T03:47:17;8.60;;;6.53;;
7324;SDS011;3703;48.016;7.802;2022-07-22T03:50:05;8.17;;;6.30;;
7324;SDS011;3703;48.016;7.802;2022-07-22T03:52:55;6.47;;;5.67;;
7324;SDS011;3703;48.016;7.802;2022-07-22T03:55:43;7.40;;;6.60;;
7324;SDS011;3703;48.016;7.802;2022-07-22T03:58:31;7.57;;;6.37;;
7324;SDS011;3703;48.016;7.802;2022-07-22T04:01:18;7.90;;;6.37;;
7324;SDS011;3703;48.016;7.802;2022-07-22T04:04:06;7.20;;;5.90;;
7324;SDS011;3703;48.016;7.802;2022-07-22T04:06:54;7.87;;;6.60;;
7324;SDS011;3703;48.016;7.802;2022-07-22T04:09:43;6.70;;;5.93;;
7324;SDS011;3703;48.016;7.802;2022-07-22T04:12:31;7.83;;;6.37;;
7324;SDS011;3703;48.016;7.802;2022-07-22T04:15:21;8.97;;;5.90;;
7324;SDS011;3703;48.016;7.802;2022-07-22T04:18:08;6.93;;;5.70;;
7324;SDS011;3703;48.016;7.802;2022-07-22T04:20:56;8.87;;;6.73;;
7324;SDS011;3703;48.016;7.802;2022-07-22T04:23:44;7.07;;;5.87;;
7324;SDS011;3703;48.016;7.802;2022-07-22T04:26:33;8.90;;;7.37;;
7324;SDS011;3703;48.016;7.802;2022-07-22T04:29:21;7.17;;;6.47;;
7324;SDS011;3703;48.016;7.802;2022-07-22T04:32:09;9.13;;;7.13;;
7324;SDS011;3703;48.016;7.802;2022-07-22T04:34:57;10.90;;;7.47;;
7324;SDS011;3703;48.016;7.802;2022-07-22T04:37:44;10.23;;;7.13;;
7324;SDS011;3703;48.016;7.802;2022-07-22T04:40:32;9.80;;;7.43;;
7324;SDS011;3703;48.016;7.802;2022-07-22T04:43:21;10.93;;;7.63;;
7324;SDS011;3703;48.016;7.802;2022-07-22T04:46:09;9.80;;;8.53;;
7324;SDS011;3703;48.016;7.802;2022-07-22T04:48:57;9.17;;;7.93;;
7324;SDS011;3703;48.016;7.802;2022-07-22T04:51:44;10.10;;;7.87;;
7324;SDS011;3703;48.016;7.802;2022-07-22T04:54:32;11.37;;;8.73;;
7324;SDS011;3703;48.016;7.802;2022-07-22T04:57:20;9.23;;;8.23;;
7324;SDS011;3703;48.016;7.802;2022-07-22T05:00:10;9.40;;;8.27;;
7324;SDS011;3703;48.016;7.802;2022-07-22T05:03:01;11.00;;;8.30;;
7324;SDS011;3703;48.016;7.802;2022-07-22T05:05:49;9.17;;;8.20;;
7324;SDS011;3703;48.016;7.802;2022-07-22T05:08:36;11.40;;;9.03;;
7324;SDS011;3703;48.016;7.802;2022-07-22T05:11:24;14.53;;;9.80;;
7324;SDS011;3703;48.016;7.802;2022-07-22T05:14:12;11.33;;;9.33;;
7324;SDS011;3703;48.016;7.802;2022-07-22T05:17:01;11.20;;;9.30;;
7324;SDS011;3703;48.016;7.802;2022-07-22T05:19:48;13.67;;;9.53;;
7324;SDS011;3703;48.016;7.802;2022-07-22T05:22:36;12.27;;;9.83;;
7324;SDS011;3703;48.016;7.802;2022-07-22T05:25:24;10.90;;;9.60;;
7324;SDS011;3703;48.016;7.802;2022-07-22T05:28:12;12.47;;;9.80;;
7324;SDS011;3703;48.016;7.802;2022-07-22T05:30:59;12.20;;;10.53;;
7324;SDS011;3703;48.016;7.802;2022-07-22T05:33:49;13.63;;;10.30;;
7324;SDS011;3703;48.016;7.802;2022-07-22T05:36:38;17.30;;;12.13;;
7324;SDS011;3703;48.016;7.802;2022-07-22T05:39:27;14.73;;;10.20;;
7324;SDS011;3703;48.016;7.802;2022-07-22T05:42:14;14.33;;;10.93;;
7324;SDS011;3703;48.016;7.802;2022-07-22T05:45:02;14.67;;;11.03;;
7324;SDS011;3703;48.016;7.802;2022-07-22T05:47:51;11.97;;;9.60;;
7324;SDS011;3703;48.016;7.802;2022-07-22T05:50:40;12.27;;;9.83;;
7324;SDS011;3703;48.016;7.802;2022-07-22T05:53:27;16.40;;;10.50;;
7324;SDS011;3703;48.016;7.802;2022-07-22T05:56:15;16.00;;;11.23;;
7324;SDS011;3703;48.016;7.802;2022-07-22T05:59:03;13.60;;;10.07;;
7324;SDS011;3703;48.016;7.802;2022-07-22T06:01:51;12.70;;;9.40;;
7324;SDS011;3703;48.016;7.802;2022-07-22T06:04:39;11.90;;;9.27;;
7324;SDS011;3703;48.016;7.802;2022-07-22T06:07:28;10.43;;;8.73;;
7324;SDS011;3703;48.016;7.802;2022-07-22T06:10:15;12.27;;;9.23;;
7324;SDS011;3703;48.016;7.802;2022-07-22T06:13:03;12.17;;;9.23;;
7324;SDS011;3703;48.016;7.802;2022-07-22T06:15:51;10.73;;;8.67;;
7324;SDS011;3703;48.016;7.802;2022-07-22T06:18:39;16.13;;;9.13;;
7324;SDS011;3703;48.016;7.802;2022-07-22T06:21:26;12.97;;;9.63;;
7324;SDS011;3703;48.016;7.802;2022-07-22T06:24:16;12.00;;;9.60;;
7324;SDS011;3703;48.016;7.802;2022-07-22T06:27:03;10.83;;;8.70;;
7324;SDS011;3703;48.016;7.802;2022-07-22T06:29:51;10.50;;;8.43;;
7324;SDS011;3703;48.016;7.802;2022-07-22T06:32:39;11.40;;;8.40;;
7324;SDS011;3703;48.016;7.802;2022-07-22T06:35:27;13.97;;;9.90;;
7324;SDS011;3703;48.016;7.802;2022-07-22T06:38:14;13.07;;;10.03;;
7324;SDS011;3703;48.016;7.802;2022-07-22T06:41:03;12.50;;;8.77;;
7324;SDS011;3703;48.016;7.802;2022-07-22T06:43:51;12.63;;;10.00;;
7324;SDS011;3703;48.016;7.802;2022-07-22T06:46:39;12.67;;;8.93;;
7324;SDS011;3703;48.016;7.802;2022-07-22T06:49:27;11.17;;;9.60;;
7324;SDS011;3703;48.016;7.802;2022-07-22T06:52:15;9.30;;;8.20;;
7324;SDS011;3703;48.016;7.802;2022-07-22T06:55:03;11.43;;;9.07;;
7324;SDS011;3703;48.016;7.802;2022-07-22T06:57:53;10.70;;;8.60;;
7324;SDS011;3703;48.016;7.802;2022-07-22T07:00:40;11.93;;;8.83;;
7324;SDS011;3703;48.016;7.802;2022-07-22T07:03:28;12.37;;;8.70;;
7324;SDS011;3703;48.016;7.802;2022-07-22T07:06:16;11.13;;;8.10;;
7324;SDS011;3703;48.016;7.802;2022-07-22T07:09:03;11.90;;;9.23;;
7324;SDS011;3703;48.016;7.802;2022-07-22T07:11:51;11.93;;;8.60;;
7324;SDS011;3703;48.016;7.802;2022-07-22T07:14:40;9.40;;;8.23;;
7324;SDS011;3703;48.016;7.802;2022-07-22T07:17:28;11.20;;;7.73;;
7324;SDS011;3703;48.016;7.802;2022-07-22T07:20:16;8.03;;;7.23;;
7324;SDS011;3703;48.016;7.802;2022-07-22T07:23:04;10.37;;;8.57;;
7324;SDS011;3703;48.016;7.802;2022-07-22T07:25:51;8.63;;;7.47;;
7324;SDS011;3703;48.016;7.802;2022-07-22T07:28:39;10.23;;;8.53;;
7324;SDS011;3703;48.016;7.802;2022-07-22T07:31:28;10.47;;;9.27;;
7324;SDS011;3703;48.016;7.802;2022-07-22T07:34:16;10.27;;;8.07;;
7324;SDS011;3703;48.016;7.802;2022-07-22T07:37:03;11.07;;;8.60;;
7324;SDS011;3703;48.016;7.802;2022-07-22T07:39:51;9.13;;;7.90;;
7324;SDS011;3703;48.016;7.802;2022-07-22T07:42:39;9.00;;;7.70;;
7324;SDS011;3703;48.016;7.802;2022-07-22T07:45:27;11.50;;;9.63;;
7324;SDS011;3703;48.016;7.802;2022-07-22T07:48:16;13.83;;;9.17;;
7324;SDS011;3703;48.016;7.802;2022-07-22T07:51:04;11.73;;;10.07;;
7324;SDS011;3703;48.016;7.802;2022-07-22T07:53:51;12.07;;;9.60;;
7324;SDS011;3703;48.016;7.802;2022-07-22T07:56:39;9.83;;;8.83;;
7324;SDS011;3703;48.016;7.802;2022-07-22T07:59:27;12.17;;;8.80;;
7324;SDS011;3703;48.016;7.802;2022-07-22T08:02:14;10.93;;;8.43;;
7324;SDS011;3703;48.016;7.802;2022-07-22T08:05:04;10.20;;;8.73;;
7324;SDS011;3703;48.016;7.802;2022-07-22T08:07:53;11.33;;;8.13;;
7324;SDS011;3703;48.016;7.802;2022-07-22T08:10:40;13.87;;;9.07;;
7324;SDS011;3703;48.016;7.802;2022-07-22T08:13:28;8.93;;;7.67;;
7324;SDS011;3703;48.016;7.802;2022-07-22T08:16:16;10.73;;;8.10;;
7324;SDS011;3703;48.016;7.802;2022-07-22T08:19:04;9.47;;;7.90;;
7324;SDS011;3703;48.016;7.802;2022-07-22T08:21:54;11.57;;;8.73;;
7324;SDS011;3703;48.016;7.802;2022-07-22T08:24:41;10.37;;;8.40;;
7324;SDS011;3703;48.016;7.802;2022-07-22T08:27:29;10.53;;;8.10;;
7324;SDS011;3703;48.016;7.802;2022-07-22T08:30:18;9.10;;;7.93;;
7324;SDS011;3703;48.016;7.802;2022-07-22T08:33:08;10.20;;;8.30;;
7324;SDS011;3703;48.016;7.802;2022-07-22T08:35:56;9.50;;;8.40;;
7324;SDS011;3703;48.016;7.802;2022-07-22T08:38:45;11.07;;;7.80;;
7324;SDS011;3703;48.016;7.802;2022-07-22T08:41:37;11.53;;;7.77;;
7324;SDS011;3703;48.016;7.802;2022-07-22T08:44:27;8.70;;;7.33;;
7324;SDS011;3703;48.016;7.802;2022-07-22T08:47:20;8.37;;;7.50;;
7324;SDS011;3703;48.016;7.802;2022-07-22T08:50:08;8.17;;;7.20;;
7324;SDS011;3703;48.016;7.802;2022-07-22T08:52:56;11.07;;;7.20;;
7324;SDS011;3703;48.016;7.802;2022-07-22T08:55:46;9.50;;;7.23;;
7324;SDS011;3703;48.016;7.802;2022-07-22T08:58:35;7.70;;;6.90;;
7324;SDS011;3703;48.016;7.802;2022-07-22T09:01:23;8.27;;;7.30;;
7324;SDS011;3703;48.016;7.802;2022-07-22T09:04:11;9.67;;;8.33;;
7324;SDS011;3703;48.016;7.802;2022-07-22T09:06:59;8.73;;;7.27;;
7324;SDS011;3703;48.016;7.802;2022-07-22T09:09:47;8.33;;;7.17;;
7324;SDS011;3703;48.016;7.802;2022-07-22T09:12:36;9.33;;;7.90;;
7324;SDS011;3703;48.016;7.802;2022-07-22T09:15:45;8.90;;;7.53;;
7324;SDS011;3703;48.016;7.802;2022-07-22T09:18:44;8.00;;;7.20;;
7324;SDS011;3703;48.016;7.802;2022-07-22T09:21:34;8.80;;;7.70;;
7324;SDS011;3703;48.016;7.802;2022-07-22T09:24:27;10.00;;;7.83;;
7324;SDS011;3703;48.016;7.802;2022-07-22T09:27:22;10.23;;;8.33;;
7324;SDS011;3703;48.016;7.802;2022-07-22T09:30:13;10.67;;;8.50;;
7324;SDS011;3703;48.016;7.802;2022-07-22T09:33:02;9.93;;;8.67;;
7324;SDS011;3703;48.016;7.802;2022-07-22T09:35:50;9.50;;;7.67;;
7324;SDS011;3703;48.016;7.802;2022-07-22T09:38:39;8.57;;;7.67;;
7324;SDS011;3703;48.016;7.802;2022-07-22T09:41:27;9.03;;;8.13;;
7324;SDS011;3703;48.016;7.802;2022-07-22T09:44:20;9.97;;;8.43;;
7324;SDS011;3703;48.016;7.802;2022-07-22T09:47:19;14.40;;;8.80;;
7324;SDS011;3703;48.016;7.802;2022-07-22T09:50:15;9.20;;;7.70;;
7324;SDS011;3703;48.016;7.802;2022-07-22T09:53:09;8.73;;;7.70;;
7324;SDS011;3703;48.016;7.802;2022-07-22T09:55:56;8.90;;;8.00;;
7324;SDS011;3703;48.016;7.802;2022-07-22T09:58:45;9.90;;;7.77;;
7324;SDS011;3703;48.016;7.802;2022-07-22T10:01:33;8.63;;;7.83;;
7324;SDS011;3703;48.016;7.802;2022-07-22T10:04:23;8.10;;;7.30;;
7324;SDS011;3703;48.016;7.802;2022-07-22T10:07:16;8.80;;;7.90;;
7324;SDS011;3703;48.016;7.802;2022-07-22T10:10:04;7.73;;;6.90;;
7324;SDS011;3703;48.016;7.802;2022-07-22T10:12:55;8.73;;;7.83;;
7324;SDS011;3703;48.016;7.802;2022-07-22T10:15:44;10.20;;;7.10;;
7324;SDS011;3703;48.016;7.802;2022-07-22T10:18:33;8.90;;;7.40;;
7324;SDS011;3703;48.016;7.802;2022-07-22T10:21:30;8.90;;;7.83;;
7324;SDS011;3703;48.016;7.802;2022-07-22T10:24:19;10.37;;;7.53;;
7324;SDS011;3703;48.016;7.802;2022-07-22T10:27:09;8.20;;;7.40;;
7324;SDS011;3703;48.016;7.802;2022-07-22T10:29:56;9.33;;;7.87;;
7324;SDS011;3703;48.016;7.802;2022-07-22T10:33:00;8.77;;;7.70;;
7324;SDS011;3703;48.016;7.802;2022-07-22T10:35:57;10.10;;;8.23;;
7324;SDS011;3703;48.016;7.802;2022-07-22T10:41:55;9.70;;;8.50;;
7324;SDS011;3703;48.016;7.802;2022-07-22T10:44:46;8.63;;;7.43;;
7324;SDS011;3703;48.016;7.802;2022-07-22T10:47:53;8.63;;;7.73;;
7324;SDS011;3703;48.016;7.802;2022-07-22T10:50:44;9.27;;;7.43;;
7324;SDS011;3703;48.016;7.802;2022-07-22T10:53:47;9.20;;;7.60;;
7324;SDS011;3703;48.016;7.802;2022-07-22T10:56:41;11.67;;;8.03;;
7324;SDS011;3703;48.016;7.802;2022-07-22T10:59:29;8.33;;;7.47;;
7324;SDS011;3703;48.016;7.802;2022-07-22T11:02:16;8.13;;;7.07;;
7324;SDS011;3703;48.016;7.802;2022-07-22T11:05:06;7.53;;;6.83;;
7324;SDS011;3703;48.016;7.802;2022-07-22T11:07:55;8.40;;;7.53;;
7324;SDS011;3703;48.016;7.802;2022-07-22T11:10:46;9.30;;;8.27;;
7324;SDS011;3703;48.016;7.802;2022-07-22T11:13:36;8.73;;;7.60;;
7324;SDS011;3703;48.016;7.802;2022-07-22T11:16:27;8.60;;;7.37;;
7324;SDS011;3703;48.016;7.802;2022-07-22T11:19:18;7.97;;;7.17;;
7324;SDS011;3703;48.016;7.802;2022-07-22T11:22:09;11.27;;;7.77;;
7324;SDS011;3703;48.016;7.802;2022-07-22T11:24:59;8.80;;;7.60;;
7324;SDS011;3703;48.016;7.802;2022-07-22T11:27:51;9.13;;;7.90;;
7324;SDS011;3703;48.016;7.802;2022-07-22T11:30:40;9.57;;;7.37;;
7324;SDS011;3703;48.016;7.802;2022-07-22T11:33:28;10.77;;;7.93;;
7324;SDS011;3703;48.016;7.802;2022-07-22T11:36:15;10.27;;;8.30;;
7324;SDS011;3703;48.016;7.802;2022-07-22T11:39:03;9.17;;;8.00;;
7324;SDS011;3703;48.016;7.802;2022-07-22T11:41:53;8.67;;;7.80;;
7324;SDS011;3703;48.016;7.802;2022-07-22T11:44:42;8.57;;;7.77;;
7324;SDS011;3703;48.016;7.802;2022-07-22T11:47:32;9.40;;;7.37;;
7324;SDS011;3703;48.016;7.802;2022-07-22T11:50:28;8.00;;;7.20;;
7324;SDS011;3703;48.016;7.802;2022-07-22T11:53:17;8.60;;;7.70;;
7324;SDS011;3703;48.016;7.802;2022-07-22T11:56:06;8.37;;;7.57;;
7324;SDS011;3703;48.016;7.802;2022-07-22T11:58:56;8.43;;;7.63;;
7324;SDS011;3703;48.016;7.802;2022-07-22T12:01:48;10.63;;;8.03;;
7324;SDS011;3703;48.016;7.802;2022-07-22T12:04:37;8.30;;;7.50;;
7324;SDS011;3703;48.016;7.802;2022-07-22T12:07:25;7.93;;;7.13;;
7324;SDS011;3703;48.016;7.802;2022-07-22T12:10:13;9.37;;;7.83;;
7324;SDS011;3703;48.016;7.802;2022-07-22T12:13:03;8.73;;;7.43;;
7324;SDS011;3703;48.016;7.802;2022-07-22T12:15:50;8.67;;;7.83;;
7324;SDS011;3703;48.016;7.802;2022-07-22T12:18:38;8.50;;;7.70;;
7324;SDS011;3703;48.016;7.802;2022-07-22T12:21:28;8.53;;;7.63;;
7324;SDS011;3703;48.016;7.802;2022-07-22T12:24:24;8.43;;;7.63;;
7324;SDS011;3703;48.016;7.802;2022-07-22T12:27:14;8.80;;;7.90;;
7324;SDS011;3703;48.016;7.802;2022-07-22T12:30:10;8.30;;;7.50;;
7324;SDS011;3703;48.016;7.802;2022-07-22T12:32:59;8.40;;;7.50;;
7324;SDS011;3703;48.016;7.802;2022-07-22T12:36:00;9.13;;;8.13;;
7324;SDS011;3703;48.016;7.802;2022-07-22T12:38:52;9.03;;;8.10;;
7324;SDS011;3703;48.016;7.802;2022-07-22T12:41:44;10.93;;;8.90;;
7324;SDS011;3703;48.016;7.802;2022-07-22T12:44:34;10.40;;;7.80;;
7324;SDS011;3703;48.016;7.802;2022-07-22T12:50:35;10.73;;;8.60;;
7324;SDS011;3703;48.016;7.802;2022-07-22T12:53:25;9.70;;;8.70;;
7324;SDS011;3703;48.016;7.802;2022-07-22T12:56:16;10.37;;;8.47;;
7324;SDS011;3703;48.016;7.802;2022-07-22T12:59:07;8.80;;;7.87;;
7324;SDS011;3703;48.016;7.802;2022-07-22T13:01:55;9.43;;;8.53;;
7324;SDS011;3703;48.016;7.802;2022-07-22T13:04:43;11.70;;;9.20;;
7324;SDS011;3703;48.016;7.802;2022-07-22T13:07:30;11.17;;;9.80;;
7324;SDS011;3703;48.016;7.802;2022-07-22T13:10:19;9.63;;;8.43;;
7324;SDS011;3703;48.016;7.802;2022-07-22T13:13:09;10.93;;;9.17;;
7324;SDS011;3703;48.016;7.802;2022-07-22T13:15:56;9.80;;;8.80;;
7324;SDS011;3703;48.016;7.802;2022-07-22T13:18:44;10.53;;;9.00;;
7324;SDS011;3703;48.016;7.802;2022-07-22T13:21:32;11.90;;;9.10;;
7324;SDS011;3703;48.016;7.802;2022-07-22T13:24:19;13.77;;;9.67;;
7324;SDS011;3703;48.016;7.802;2022-07-22T13:27:07;10.83;;;9.03;;
7324;SDS011;3703;48.016;7.802;2022-07-22T13:29:56;11.27;;;8.23;;
7324;SDS011;3703;48.016;7.802;2022-07-22T13:32:44;8.90;;;8.00;;
7324;SDS011;3703;48.016;7.802;2022-07-22T13:35:32;9.90;;;8.87;;
7324;SDS011;3703;48.016;7.802;2022-07-22T13:38:20;9.37;;;8.17;;
7324;SDS011;3703;48.016;7.802;2022-07-22T13:41:07;10.67;;;9.57;;
7324;SDS011;3703;48.016;7.802;2022-07-22T13:44:02;10.30;;;8.93;;
7324;SDS011;3703;48.016;7.802;2022-07-22T13:46:53;8.57;;;7.67;;
7324;SDS011;3703;48.016;7.802;2022-07-22T13:49:44;10.33;;;8.37;;
7324;SDS011;3703;48.016;7.802;2022-07-22T13:52:32;8.27;;;7.20;;
7324;SDS011;3703;48.016;7.802;2022-07-22T13:55:20;8.87;;;8.00;;
7324;SDS011;3703;48.016;7.802;2022-07-22T13:58:07;8.57;;;7.77;;
7324;SDS011;3703;48.016;7.802;2022-07-22T14:00:55;8.85;;;7.95;;
7324;SDS011;3703;48.016;7.802;2022-07-22T14:03:44;9.45;;;8.20;;
7324;SDS011;3703;48.016;7.802;2022-07-22T14:06:32;8.43;;;7.65;;
7324;SDS011;3703;48.016;7.802;2022-07-22T14:09:20;9.18;;;7.50;;
7324;SDS011;3703;48.016;7.802;2022-07-22T14:12:08;9.68;;;8.05;;
7324;SDS011;3703;48.016;7.802;2022-07-22T14:14:56;9.27;;;7.53;;
7324;SDS011;3703;48.016;7.802;2022-07-22T14:17:44;10.65;;;9.23;;
7324;SDS011;3703;48.016;7.802;2022-07-22T14:20:33;7.93;;;6.90;;
7324;SDS011;3703;48.016;7.802;2022-07-22T14:23:22;10.15;;;8.60;;
7324;SDS011;3703;48.016;7.802;2022-07-22T14:26:10;7.68;;;6.80;;
7324;SDS011;3703;48.016;7.802;2022-07-22T14:28:58;7.95;;;7.07;;
7324;SDS011;3703;48.016;7.802;2022-07-22T14:31:45;8.38;;;7.40;;
7324;SDS011;3703;48.016;7.802;2022-07-22T14:34:33;9.02;;;7.15;;
7324;SDS011;3703;48.016;7.802;2022-07-22T14:37:22;8.73;;;6.85;;
7324;SDS011;3703;48.016;7.802;2022-07-22T14:40:11;7.05;;;6.10;;
7324;SDS011;3703;48.016;7.802;2022-07-22T14:42:59;8.13;;;6.63;;
7324;SDS011;3703;48.016;7.802;2022-07-22T14:45:47;8.80;;;7.00;;
7324;SDS011;3703;48.016;7.802;2022-07-22T14:48:35;7.83;;;6.80;;
7324;SDS011;3703;48.016;7.802;2022-07-22T14:51:23;8.70;;;6.43;;
7324;SDS011;3703;48.016;7.802;2022-07-22T14:54:12;7.10;;;6.40;;
7324;SDS011;3703;48.016;7.802;2022-07-22T14:57:00;7.50;;;6.57;;
7324;SDS011;3703;48.016;7.802;2022-07-22T14:59:48;7.47;;;6.27;;
7324;SDS011;3703;48.016;7.802;2022-07-22T15:02:35;8.13;;;6.27;;
7324;SDS011;3703;48.016;7.802;2022-07-22T15:05:23;6.87;;;6.23;;
7324;SDS011;3703;48.016;7.802;2022-07-22T15:08:11;6.90;;;6.20;;
7324;SDS011;3703;48.016;7.802;2022-07-22T15:11:00;8.73;;;6.73;;
7324;SDS011;3703;48.016;7.802;2022-07-22T15:13:48;8.53;;;6.57;;
7324;SDS011;3703;48.016;7.802;2022-07-22T15:16:36;7.77;;;6.70;;
7324;SDS011;3703;48.016;7.802;2022-07-22T15:19:23;7.50;;;6.77;;
7324;SDS011;3703;48.016;7.802;2022-07-22T15:22:11;9.20;;;7.50;;
7324;SDS011;3703;48.016;7.802;2022-07-22T15:24:58;9.40;;;7.53;;
7324;SDS011;3703;48.016;7.802;2022-07-22T15:27:48;7.40;;;6.70;;
7324;SDS011;3703;48.016;7.802;2022-07-22T15:30:36;11.23;;;8.60;;
7324;SDS011;3703;48.016;7.802;2022-07-22T15:33:24;14.93;;;8.20;;
7324;SDS011;3703;48.016;7.802;2022-07-22T15:36:12;9.17;;;8.13;;
7324;SDS011;3703;48.016;7.802;2022-07-22T15:38:59;9.43;;;7.83;;
7324;SDS011;3703;48.016;7.802;2022-07-22T15:41:47;10.00;;;7.40;;
7324;SDS011;3703;48.016;7.802;2022-07-22T15:44:36;9.37;;;6.43;;
7324;SDS011;3703;48.016;7.802;2022-07-22T15:47:24;8.47;;;7.57;;
7324;SDS011;3703;48.016;7.802;2022-07-22T15:50:12;7.77;;;6.87;;
7324;SDS011;3703;48.016;7.802;2022-07-22T15:53:00;15.20;;;9.00;;
7324;SDS011;3703;48.016;7.802;2022-07-22T15:55:48;9.77;;;7.47;;
7324;SDS011;3703;48.016;7.802;2022-07-22T15:58:35;7.53;;;6.77;;
7324;SDS011;3703;48.016;7.802;2022-07-22T16:01:42;7.60;;;6.50;;
7324;SDS011;3703;48.016;7.802;2022-07-22T16:04:30;9.77;;;7.73;;
7324;SDS011;3703;48.016;7.802;2022-07-22T16:07:17;8.70;;;6.73;;
7324;SDS011;3703;48.016;7.802;2022-07-22T16:10:05;8.53;;;7.40;;
7324;SDS011;3703;48.016;7.802;2022-07-22T16:12:54;9.90;;;8.00;;
7324;SDS011;3703;48.016;7.802;2022-07-22T16:15:41;13.00;;;10.10;;
7324;SDS011;3703;48.016;7.802;2022-07-22T16:18:30;12.47;;;8.77;;
7324;SDS011;3703;48.016;7.802;2022-07-22T16:21:18;11.37;;;8.73;;
7324;SDS011;3703;48.016;7.802;2022-07-22T16:24:06;12.47;;;9.03;;
7324;SDS011;3703;48.016;7.802;2022-07-22T16:26:54;16.20;;;10.50;;
7324;SDS011;3703;48.016;7.802;2022-07-22T16:29:41;11.53;;;8.50;;
7324;SDS011;3703;48.016;7.802;2022-07-22T16:32:29;11.07;;;7.97;;
7324;SDS011;3703;48.016;7.802;2022-07-22T16:35:18;9.67;;;7.67;;
7324;SDS011;3703;48.016;7.802;2022-07-22T16:38:06;8.57;;;7.63;;
7324;SDS011;3703;48.016;7.802;2022-07-22T16:40:53;8.33;;;7.37;;
7324;SDS011;3703;48.016;7.802;2022-07-22T16:43:41;11.33;;;9.20;;
7324;SDS011;3703;48.016;7.802;2022-07-22T16:46:29;16.83;;;13.03;;
7324;SDS011;3703;48.016;7.802;2022-07-22T16:49:17;15.90;;;12.03;;
7324;SDS011;3703;48.016;7.802;2022-07-22T16:52:06;15.27;;;11.67;;
7324;SDS011;3703;48.016;7.802;2022-07-22T16:54:53;16.90;;;11.60;;
7324;SDS011;3703;48.016;7.802;2022-07-22T16:57:41;10.57;;;8.67;;
7324;SDS011;3703;48.016;7.802;2022-07-22T17:00:29;11.50;;;8.60;;
7324;SDS011;3703;48.016;7.802;2022-07-22T17:03:16;9.63;;;8.27;;
7324;SDS011;3703;48.016;7.802;2022-07-22T17:06:04;12.70;;;7.87;;
7324;SDS011;3703;48.016;7.802;2022-07-22T17:08:54;10.33;;;8.57;;
7324;SDS011;3703;48.016;7.802;2022-07-22T17:11:41;12.93;;;9.90;;
7324;SDS011;3703;48.016;7.802;2022-07-22T17:14:29;12.67;;;8.97;;
7324;SDS011;3703;48.016;7.802;2022-07-22T17:17:17;15.40;;;10.43;;
7324;SDS011;3703;48.016;7.802;2022-07-22T17:20:05;12.37;;;9.83;;
7324;SDS011;3703;48.016;7.802;2022-07-22T17:22:55;13.50;;;10.07;;
7324;SDS011;3703;48.016;7.802;2022-07-22T17:25:46;11.83;;;9.40;;
7324;SDS011;3703;48.016;7.802;2022-07-22T17:28:34;10.00;;;8.57;;